createdAt,value
2023-05-01T00:00:54.261Z,9.719276
2023-05-01T00:01:54.230Z,9.719081
2023-05-01T00:02:54.398Z,9.718951
2023-05-01T00:03:54.608Z,9.719399
2023-05-01T00:04:54.253Z,9.719186
2023-05-01T00:05:54.218Z,9.719059
2023-05-01T00:06:54.231Z,9.719172
2023-05-01T00:07:54.178Z,9.719283
2023-05-01T00:08:54.182Z,9.719125
2023-05-01T00:09:54.386Z,9.719169
2023-05-01T00:10:54.152Z,9.718933
2023-05-01T00:11:54.156Z,9.719171
2023-05-01T00:12:54.127Z,9.719187
2023-05-01T00:13:54.115Z,9.718783
2023-05-01T00:14:54.122Z,9.718955
2023-05-01T00:15:54.128Z,9.719077
2023-05-01T00:16:54.163Z,9.719188
2023-05-01T00:17:54.146Z,9.719008
2023-05-01T00:18:54.137Z,9.719359
2023-05-01T00:19:54.323Z,9.719091
2023-05-01T00:20:54.043Z,9.718891
2023-05-01T00:21:54.033Z,9.719224
2023-05-01T00:22:54.035Z,9.719160
2023-05-01T00:23:54.000Z,9.719143
2023-05-01T00:24:53.999Z,9.719059
2023-05-01T00:25:54.007Z,9.719089
2023-05-01T00:26:53.988Z,9.719110
2023-05-01T00:27:53.963Z,9.719219
2023-05-01T00:28:53.977Z,9.719260
2023-05-01T00:29:54.234Z,9.719448
2023-05-01T00:30:53.941Z,9.719324
2023-05-01T00:31:53.975Z,9.719274
2023-05-01T00:32:54.004Z,9.719187
2023-05-01T00:33:53.928Z,9.719065
2023-05-01T00:34:53.893Z,9.719095
2023-05-01T00:35:53.904Z,9.719380
2023-05-01T00:36:53.953Z,9.719381
2023-05-01T00:37:53.872Z,9.719299
2023-05-01T00:38:53.867Z,9.719329
2023-05-01T00:39:54.078Z,9.719404
2023-05-01T00:40:53.856Z,9.719374
2023-05-01T00:41:53.833Z,9.719335
2023-05-01T00:42:53.828Z,9.719275
2023-05-01T00:43:53.869Z,9.719236
2023-05-01T00:44:53.852Z,9.719277
2023-05-01T00:45:53.869Z,9.719409
2023-05-01T00:46:53.783Z,9.719387
2023-05-01T00:47:53.826Z,9.719371
2023-05-01T00:48:53.776Z,9.719296
2023-05-01T00:49:53.949Z,9.719271
2023-05-01T00:50:54.751Z,9.719323
2023-05-01T00:51:53.755Z,9.719259
2023-05-01T00:52:53.728Z,9.719309
2023-05-01T00:53:53.715Z,9.719313
2023-05-01T00:54:53.735Z,9.719344
2023-05-01T00:55:53.694Z,9.719478
2023-05-01T00:56:53.723Z,9.719392
2023-05-01T00:57:53.671Z,9.719401
2023-05-01T00:58:53.665Z,9.719379
2023-05-01T00:59:53.727Z,9.719384
2023-05-01T01:00:53.684Z,9.719431
2023-05-01T01:01:56.165Z,9.719406
2023-05-01T01:02:53.639Z,9.719321
2023-05-01T01:03:53.658Z,9.719406
2023-05-01T01:04:53.656Z,9.719382
2023-05-01T01:05:53.597Z,9.719400
2023-05-01T01:06:53.605Z,9.719389
2023-05-01T01:07:53.571Z,9.719315
2023-05-01T01:08:53.578Z,9.719405
2023-05-01T01:09:53.827Z,9.719429
2023-05-01T01:10:53.540Z,9.719378
2023-05-01T01:11:53.564Z,9.719285
2023-05-01T01:12:53.536Z,9.719311
2023-05-01T01:13:53.517Z,9.719334
2023-05-01T01:14:53.500Z,9.719337
2023-05-01T01:15:53.497Z,9.719319
2023-05-01T01:16:53.544Z,9.719176
2023-05-01T01:17:53.544Z,9.719163
2023-05-01T01:18:53.482Z,9.719291
2023-05-01T01:19:53.699Z,9.719203
2023-05-01T01:20:53.548Z,9.719425
2023-05-01T01:21:53.484Z,9.719533
2023-05-01T01:22:53.429Z,9.719727
2023-05-01T01:23:53.429Z,9.719543
2023-05-01T01:24:53.408Z,9.719277
2023-05-01T01:25:53.408Z,9.719534
2023-05-01T01:26:53.415Z,9.719592
2023-05-01T01:27:53.426Z,9.719699
2023-05-01T01:28:53.380Z,9.719623
2023-05-01T01:29:53.393Z,9.719351
2023-05-01T01:30:53.394Z,9.719337
2023-05-01T01:31:53.349Z,9.719486
2023-05-01T01:32:53.421Z,9.719370
2023-05-01T01:33:53.331Z,9.719373
2023-05-01T01:34:53.306Z,9.719406
2023-05-01T01:35:53.324Z,9.719324
2023-05-01T01:36:53.297Z,9.719367
2023-05-01T01:37:53.301Z,9.719274
2023-05-01T01:38:53.283Z,9.719191
2023-05-01T01:39:53.364Z,9.719197
2023-05-01T01:40:53.266Z,9.719256
2023-05-01T01:41:53.255Z,9.719298
2023-05-01T01:42:53.244Z,9.719320
2023-05-01T01:43:53.228Z,9.719379
2023-05-01T01:44:53.289Z,9.719428
2023-05-01T01:45:53.223Z,9.719392
2023-05-01T01:46:53.219Z,9.719344
2023-05-01T01:47:53.243Z,9.719343
2023-05-01T01:48:53.190Z,9.719281
2023-05-01T01:49:53.272Z,9.719337
2023-05-01T01:50:53.178Z,9.719350
2023-05-01T01:51:53.170Z,9.719338
2023-05-01T01:52:53.284Z,9.719348
2023-05-01T01:53:53.132Z,9.719337
2023-05-01T01:54:53.144Z,9.719313
2023-05-01T01:55:53.154Z,9.719331
2023-05-01T01:56:53.115Z,9.719354
2023-05-01T01:57:53.094Z,9.719337
2023-05-01T01:58:53.193Z,9.719297
2023-05-01T01:59:53.164Z,9.719287
2023-05-01T02:00:53.083Z,9.719311
2023-05-01T02:01:53.150Z,9.719356
2023-05-01T02:02:53.231Z,9.719328
2023-05-01T02:03:53.173Z,9.719384
2023-05-01T02:04:53.045Z,9.719333
2023-05-01T02:05:53.010Z,9.719331
2023-05-01T02:06:53.060Z,9.719307
2023-05-01T02:07:52.997Z,9.719337
2023-05-01T02:08:53.090Z,9.719304
2023-05-01T02:09:52.985Z,9.719269
2023-05-01T02:10:52.984Z,9.719216
2023-05-01T02:11:53.002Z,9.719251
2023-05-01T02:12:52.990Z,9.719262
2023-05-01T02:13:52.933Z,9.719263
2023-05-01T02:14:52.927Z,9.719372
2023-05-01T02:15:52.964Z,9.719339
2023-05-01T02:16:52.908Z,9.719280
2023-05-01T02:17:53.020Z,9.719346
2023-05-01T02:18:52.892Z,9.719283
2023-05-01T02:19:52.961Z,9.719275
2023-05-01T02:20:52.863Z,9.719254
2023-05-01T02:21:52.855Z,9.719264
2023-05-01T02:22:52.853Z,9.719350
2023-05-01T02:23:52.873Z,9.719212
2023-05-01T02:24:52.834Z,9.719221
2023-05-01T02:25:52.813Z,9.719203
2023-05-01T02:26:52.831Z,9.719222
2023-05-01T02:27:52.833Z,9.719235
2023-05-01T02:28:52.827Z,9.719259
2023-05-01T02:29:52.837Z,9.719216
2023-05-01T02:30:52.770Z,9.719213
2023-05-01T02:31:52.781Z,9.719232
2023-05-01T02:32:52.808Z,9.719319
2023-05-01T02:33:52.741Z,9.719258
2023-05-01T02:34:52.739Z,9.719303
2023-05-01T02:35:52.724Z,9.719283
2023-05-01T02:36:52.724Z,9.719327
2023-05-01T02:37:52.741Z,9.719162
2023-05-01T02:38:52.701Z,9.719134
2023-05-01T02:39:52.681Z,9.719103
2023-05-01T02:40:52.679Z,9.719185
2023-05-01T02:41:52.665Z,9.719146
2023-05-01T02:42:52.695Z,9.718650
2023-05-01T02:43:53.707Z,9.719237
2023-05-01T02:44:52.640Z,9.719236
2023-05-01T02:45:52.654Z,9.719244
2023-05-01T02:46:52.716Z,9.719258
2023-05-01T02:47:52.703Z,9.719632
2023-05-01T02:48:52.606Z,9.718990
2023-05-01T02:49:52.646Z,9.719189
2023-05-01T02:50:52.576Z,9.719119
2023-05-01T02:51:52.567Z,9.719165
2023-05-01T02:52:52.560Z,9.719270
2023-05-01T02:53:52.559Z,9.719255
2023-05-01T02:54:52.563Z,9.719210
2023-05-01T02:55:52.534Z,9.719065
2023-05-01T02:56:52.520Z,9.719009
2023-05-01T02:57:52.520Z,9.718938
2023-05-01T02:58:52.566Z,9.719098
2023-05-01T02:59:52.506Z,9.719197
2023-05-01T03:00:52.534Z,9.719252
2023-05-01T03:01:52.535Z,9.719260
2023-05-01T03:02:52.508Z,9.719146
2023-05-01T03:03:52.580Z,9.719150
2023-05-01T03:04:52.463Z,9.719246
2023-05-01T03:05:52.436Z,9.719069
2023-05-01T03:06:52.538Z,9.719133
2023-05-01T03:07:52.418Z,9.719126
2023-05-01T03:08:52.409Z,9.719070
2023-05-01T03:09:52.479Z,9.719230
2023-05-01T03:10:52.387Z,9.719151
2023-05-01T03:11:52.392Z,9.719337
2023-05-01T03:12:52.486Z,9.719049
2023-05-01T03:13:52.430Z,9.719176
2023-05-01T03:14:52.376Z,9.719262
2023-05-01T03:15:55.802Z,9.719217
2023-05-01T03:16:52.422Z,9.719216
2023-05-01T03:17:52.378Z,9.719279
2023-05-01T03:18:52.318Z,9.719193
2023-05-01T03:19:52.298Z,9.719138
2023-05-01T03:20:52.314Z,9.719132
2023-05-01T03:21:52.336Z,9.719078
2023-05-01T03:22:52.275Z,9.719157
2023-05-01T03:23:52.269Z,9.719266
2023-05-01T03:24:52.247Z,9.719245
2023-05-01T03:25:52.253Z,9.719157
2023-05-01T03:26:52.284Z,9.719300
2023-05-01T03:27:54.821Z,9.719233
2023-05-01T03:28:52.314Z,9.719189
2023-05-01T03:29:53.313Z,9.719155
2023-05-01T03:30:52.192Z,9.719253
2023-05-01T03:31:52.241Z,9.719203
2023-05-01T03:32:52.255Z,9.719137
2023-05-01T03:33:52.172Z,9.719226
2023-05-01T03:34:52.189Z,9.719216
2023-05-01T03:35:52.154Z,9.719122
2023-05-01T03:36:52.137Z,9.719164
2023-05-01T03:37:52.154Z,9.719177
2023-05-01T03:38:52.113Z,9.719151
2023-05-01T03:39:52.103Z,9.719115
2023-05-01T03:40:52.194Z,9.719154
2023-05-01T03:41:52.097Z,9.719201
2023-05-01T03:42:52.078Z,9.719217
2023-05-01T03:43:52.094Z,9.719187
2023-05-01T03:44:52.061Z,9.719133
2023-05-01T03:45:52.066Z,9.719117
2023-05-01T03:46:52.068Z,9.719109
2023-05-01T03:47:52.041Z,9.719225
2023-05-01T03:48:52.023Z,9.719217
2023-05-01T03:49:52.016Z,9.719224
2023-05-01T03:50:52.017Z,9.719210
2023-05-01T03:51:52.067Z,9.719102
2023-05-01T03:52:51.994Z,9.719075
2023-05-01T03:53:51.991Z,9.718970
2023-05-01T03:54:51.965Z,9.719214
2023-05-01T03:55:51.948Z,9.719110
2023-05-01T03:56:51.965Z,9.718928
2023-05-01T03:57:51.936Z,9.718755
2023-05-01T03:58:51.920Z,9.719281
2023-05-01T03:59:51.939Z,9.719151
2023-05-01T04:00:51.901Z,9.718910
2023-05-01T04:01:51.985Z,9.718927
2023-05-01T04:02:51.975Z,9.718944
2023-05-01T04:03:52.003Z,9.719049
2023-05-01T04:04:51.915Z,9.718883
2023-05-01T04:05:51.852Z,9.718987
2023-05-01T04:06:51.898Z,9.719231
2023-05-01T04:07:51.829Z,9.719414
2023-05-01T04:08:51.840Z,9.719501
2023-05-01T04:09:51.834Z,9.719131
2023-05-01T04:10:51.804Z,9.718923
2023-05-01T04:11:51.805Z,9.719075
2023-05-01T04:12:51.811Z,9.718853
2023-05-01T04:13:51.768Z,9.718848
2023-05-01T04:14:51.791Z,9.719162
2023-05-01T04:15:51.825Z,9.718994
2023-05-01T04:16:51.766Z,9.718933
2023-05-01T04:17:51.828Z,9.719033
2023-05-01T04:18:52.743Z,9.719018
2023-05-01T04:19:51.799Z,9.719124
2023-05-01T04:20:51.722Z,9.718972
2023-05-01T04:21:51.701Z,9.718916
2023-05-01T04:22:51.709Z,9.718979
2023-05-01T04:23:51.688Z,9.719193
2023-05-01T04:24:51.700Z,9.719324
2023-05-01T04:25:51.666Z,9.719240
2023-05-01T04:26:51.748Z,9.719267
2023-05-01T04:27:51.653Z,9.719050
2023-05-01T04:28:51.636Z,9.719271
2023-05-01T04:29:51.656Z,9.719184
2023-05-01T04:30:51.617Z,9.719067
2023-05-01T04:31:51.642Z,9.719104
2023-05-01T04:32:51.623Z,9.719168
2023-05-01T04:33:51.578Z,9.719205
2023-05-01T04:34:51.604Z,9.719228
2023-05-01T04:35:51.767Z,9.719231
2023-05-01T04:36:51.551Z,9.719213
2023-05-01T04:37:51.545Z,9.719276
2023-05-01T04:38:51.568Z,9.719312
2023-05-01T04:39:51.530Z,9.719287
2023-05-01T04:40:51.536Z,9.719182
2023-05-01T04:41:51.558Z,9.719275
2023-05-01T04:42:51.500Z,9.719219
2023-05-01T04:43:51.484Z,9.719222
2023-05-01T04:44:51.492Z,9.719251
2023-05-01T04:45:51.475Z,9.719220
2023-05-01T04:46:51.516Z,9.719283
2023-05-01T04:47:51.509Z,9.719231
2023-05-01T04:48:51.443Z,9.719322
2023-05-01T04:49:51.434Z,9.719235
2023-05-01T04:50:51.443Z,9.719200
2023-05-01T04:51:51.421Z,9.719154
2023-05-01T04:52:51.402Z,9.719152
2023-05-01T04:53:51.395Z,9.719201
2023-05-01T04:54:51.385Z,9.719254
2023-05-01T04:55:51.394Z,9.719202
2023-05-01T04:56:51.365Z,9.719316
2023-05-01T04:57:51.347Z,9.719230
2023-05-01T04:58:51.352Z,9.719207
2023-05-01T04:59:52.125Z,9.719305
2023-05-01T05:00:51.391Z,9.719170
2023-05-01T05:01:51.376Z,9.719196
2023-05-01T05:02:51.423Z,9.719132
2023-05-01T05:03:51.588Z,9.719184
2023-05-01T05:04:52.117Z,9.719186
2023-05-01T05:05:51.315Z,9.719054
2023-05-01T05:06:51.297Z,9.719151
2023-05-01T05:07:51.312Z,9.719232
2023-05-01T05:08:52.296Z,9.719282
2023-05-01T05:09:51.237Z,9.719040
2023-05-01T05:10:51.223Z,9.719167
2023-05-01T05:11:51.241Z,9.719221
2023-05-01T05:12:51.219Z,9.719280
2023-05-01T05:13:51.190Z,9.719238
2023-05-01T05:14:51.210Z,9.719099
2023-05-01T05:15:51.177Z,9.719147
2023-05-01T05:16:51.250Z,9.719213
2023-05-01T05:17:51.241Z,9.719262
2023-05-01T05:18:51.219Z,9.719205
2023-05-01T05:19:51.176Z,9.719221
2023-05-01T05:20:51.132Z,9.719146
2023-05-01T05:21:51.121Z,9.719161
2023-05-01T05:22:51.112Z,9.719336
2023-05-01T05:23:51.110Z,9.719175
2023-05-01T05:24:51.142Z,9.719197
2023-05-01T05:25:51.080Z,9.719205
2023-05-01T05:26:51.078Z,9.719355
2023-05-01T05:27:51.050Z,9.719295
2023-05-01T05:28:51.062Z,9.719258
2023-05-01T05:29:51.141Z,9.719223
2023-05-01T05:30:51.033Z,9.719231
2023-05-01T05:31:51.063Z,9.719176
2023-05-01T05:32:51.106Z,9.719274
2023-05-01T05:33:51.007Z,9.719211
2023-05-01T05:34:51.006Z,9.719146
2023-05-01T05:35:51.035Z,9.719155
2023-05-01T05:36:50.981Z,9.719194
2023-05-01T05:37:50.958Z,9.719284
2023-05-01T05:38:50.958Z,9.719269
2023-05-01T05:39:50.957Z,9.719208
2023-05-01T05:40:50.925Z,9.719209
2023-05-01T05:41:50.942Z,9.719119
2023-05-01T05:42:50.920Z,9.719114
2023-05-01T05:43:50.901Z,9.719170
2023-05-01T05:44:50.900Z,9.719194
2023-05-01T05:45:50.903Z,9.719162
2023-05-01T05:46:50.908Z,9.719136
2023-05-01T05:47:50.896Z,9.719163
2023-05-01T05:48:50.851Z,9.719268
2023-05-01T05:49:50.866Z,9.719241
2023-05-01T05:50:50.841Z,9.719281
2023-05-01T05:51:50.837Z,9.719227
2023-05-01T05:52:50.828Z,9.719307
2023-05-01T05:53:50.835Z,9.719224
2023-05-01T05:54:50.813Z,9.719170
2023-05-01T05:55:50.805Z,9.719193
2023-05-01T05:56:50.804Z,9.719249
2023-05-01T05:57:50.778Z,9.719220
2023-05-01T05:58:50.838Z,9.719294
2023-05-01T05:59:50.775Z,9.719194
2023-05-01T06:00:50.734Z,9.719172
2023-05-01T06:01:50.745Z,9.719213
2023-05-01T06:02:50.768Z,9.719176
2023-05-01T06:03:50.768Z,9.719255
2023-05-01T06:04:50.697Z,9.719113
2023-05-01T06:05:50.797Z,9.719368
2023-05-01T06:06:50.707Z,9.719350
2023-05-01T06:07:50.682Z,9.719244
2023-05-01T06:08:50.671Z,9.719125
2023-05-01T06:09:50.642Z,9.719037
2023-05-01T06:10:50.650Z,9.719091
2023-05-01T06:11:50.626Z,9.719026
2023-05-01T06:13:04.734Z,9.718978
2023-05-01T06:13:51.610Z,9.718970
2023-05-01T06:14:50.611Z,9.719101
2023-05-01T06:15:50.644Z,9.719147
2023-05-01T06:16:50.588Z,9.719175
2023-05-01T06:17:50.628Z,9.719365
2023-05-01T06:18:50.559Z,9.719261
2023-05-01T06:19:50.558Z,9.719294
2023-05-01T06:20:50.646Z,9.719315
2023-05-01T06:21:50.599Z,9.719219
2023-05-01T06:22:50.540Z,9.719166
2023-05-01T06:23:50.520Z,9.719252
2023-05-01T06:24:50.596Z,9.719184
2023-05-01T06:25:50.575Z,9.719242
2023-05-01T06:26:50.560Z,9.719246
2023-05-01T06:27:50.488Z,9.719235
2023-05-01T06:28:50.633Z,9.719283
2023-05-01T06:29:50.540Z,9.719164
2023-05-01T06:30:50.545Z,9.719135
2023-05-01T06:31:50.591Z,9.719132
2023-05-01T06:32:50.503Z,9.719064
2023-05-01T06:33:50.410Z,9.719137
2023-05-01T06:34:50.482Z,9.719178
2023-05-01T06:35:51.404Z,9.719143
2023-05-01T06:36:50.453Z,9.719194
2023-05-01T06:37:50.372Z,9.719253
2023-05-01T06:38:50.352Z,9.719271
2023-05-01T06:39:50.639Z,9.719242
2023-05-01T06:40:50.403Z,9.719267
2023-05-01T06:41:50.340Z,9.719389
2023-05-01T06:42:50.372Z,9.719274
2023-05-01T06:43:50.308Z,9.719276
2023-05-01T06:44:50.312Z,9.719267
2023-05-01T06:45:50.306Z,9.719360
2023-05-01T06:46:50.522Z,9.719316
2023-05-01T06:47:50.500Z,9.719300
2023-05-01T06:48:50.295Z,9.719263
2023-05-01T06:49:50.283Z,9.719271
2023-05-01T06:50:50.327Z,9.719325
2023-05-01T06:51:50.257Z,9.719440
2023-05-01T06:52:50.317Z,9.719352
2023-05-01T06:53:50.295Z,9.719329
2023-05-01T06:54:50.279Z,9.719322
2023-05-01T06:55:50.249Z,9.719342
2023-05-01T06:56:50.203Z,9.719329
2023-05-01T06:57:50.167Z,9.719298
2023-05-01T06:58:50.328Z,9.719316
2023-05-01T06:59:50.162Z,9.719407
2023-05-01T07:00:50.314Z,9.719257
2023-05-01T07:01:50.241Z,9.719242
2023-05-01T07:02:50.214Z,9.719127
2023-05-01T07:03:50.106Z,9.719135
2023-05-01T07:04:50.182Z,9.719267
2023-05-01T07:05:50.109Z,9.719233
2023-05-01T07:06:50.195Z,9.719232
2023-05-01T07:07:57.844Z,9.719128
2023-05-01T07:08:51.067Z,9.719235
2023-05-01T07:09:50.052Z,9.719328
2023-05-01T07:10:50.050Z,9.719314
2023-05-01T07:11:50.038Z,9.719321
2023-05-01T07:12:50.033Z,9.719263
2023-05-01T07:13:50.054Z,9.719388
2023-05-01T07:14:50.004Z,9.719426
2023-05-01T07:15:51.702Z,9.719316
2023-05-01T07:16:50.103Z,9.719368
2023-05-01T07:17:49.995Z,9.719258
2023-05-01T07:18:49.978Z,9.719311
2023-05-01T07:19:49.959Z,9.719364
2023-05-01T07:20:50.036Z,9.719363
2023-05-01T07:21:50.066Z,9.719406
2023-05-01T07:22:49.969Z,9.719440
2023-05-01T07:23:49.924Z,9.719343
2023-05-01T07:24:50.052Z,9.719326
2023-05-01T07:25:49.899Z,9.719364
2023-05-01T07:26:49.956Z,9.719333
2023-05-01T07:27:49.955Z,9.719394
2023-05-01T07:28:49.939Z,9.719501
2023-05-01T07:29:49.869Z,9.719507
2023-05-01T07:30:49.841Z,9.719341
2023-05-01T07:31:49.841Z,9.719374
2023-05-01T07:32:49.883Z,9.719233
2023-05-01T07:33:51.025Z,9.719222
2023-05-01T07:34:49.932Z,9.719299
2023-05-01T07:35:49.810Z,9.719151
2023-05-01T07:36:49.817Z,9.719193
2023-05-01T07:37:49.817Z,9.719116
2023-05-01T07:38:49.759Z,9.719316
2023-05-01T07:39:49.769Z,9.719031
2023-05-01T07:40:49.798Z,9.719106
2023-05-01T07:41:49.749Z,9.719390
2023-05-01T07:42:50.434Z,9.719254
2023-05-01T07:43:49.772Z,9.719303
2023-05-01T07:44:49.742Z,9.719101
2023-05-01T07:45:49.785Z,9.719493
2023-05-01T07:46:49.754Z,9.719291
2023-05-01T07:47:49.726Z,9.719059
2023-05-01T07:48:49.674Z,9.719274
2023-05-01T07:49:49.686Z,9.719256
2023-05-01T07:50:49.762Z,9.719522
2023-05-01T07:51:49.667Z,9.719041
2023-05-01T07:52:49.688Z,9.719145
2023-05-01T07:53:49.625Z,9.719281
2023-05-01T07:54:49.695Z,9.719258
2023-05-01T07:55:49.616Z,9.719183
2023-05-01T07:56:49.880Z,9.719354
2023-05-01T07:57:50.679Z,9.719307
2023-05-01T07:58:49.560Z,9.719300
2023-05-01T07:59:49.560Z,9.719288
2023-05-01T08:00:49.625Z,9.719278
2023-05-01T08:01:49.724Z,9.719553
2023-05-01T08:02:49.697Z,9.719299
2023-05-01T08:03:50.919Z,9.719205
2023-05-01T08:04:50.696Z,9.719092
2023-05-01T08:05:49.505Z,9.719056
2023-05-01T08:06:49.558Z,9.719112
2023-05-01T08:07:49.503Z,9.719338
2023-05-01T08:08:49.471Z,9.719240
2023-05-01T08:09:49.456Z,9.719235
2023-05-01T08:10:49.468Z,9.719148
2023-05-01T08:11:49.465Z,9.719093
2023-05-01T08:12:49.618Z,9.719327
2023-05-01T08:13:49.425Z,9.719311
2023-05-01T08:14:49.464Z,9.719307
2023-05-01T08:15:49.511Z,9.719169
2023-05-01T08:16:49.652Z,9.719185
2023-05-01T08:17:50.725Z,9.719320
2023-05-01T08:18:49.636Z,9.719186
2023-05-01T08:19:49.453Z,9.719266
2023-05-01T08:20:49.494Z,9.719295
2023-05-01T08:21:49.357Z,9.719239
2023-05-01T08:22:49.433Z,9.719357
2023-05-01T08:23:49.333Z,9.719316
2023-05-01T08:24:49.378Z,9.719425
2023-05-01T08:25:49.324Z,9.719349
2023-05-01T08:26:49.521Z,9.719338
2023-05-01T08:27:49.311Z,9.719410
2023-05-01T08:28:49.291Z,9.719315
2023-05-01T08:29:49.475Z,9.719380
2023-05-01T08:30:49.318Z,9.719378
2023-05-01T08:31:49.297Z,9.719343
2023-05-01T08:32:49.477Z,9.719259
2023-05-01T08:33:50.240Z,9.719285
2023-05-01T08:34:49.233Z,9.719151
2023-05-01T08:35:49.442Z,9.719281
2023-05-01T08:36:49.221Z,9.719222
2023-05-01T08:37:49.228Z,9.719309
2023-05-01T08:38:49.223Z,9.719261
2023-05-01T08:39:49.182Z,9.719284
2023-05-01T08:40:49.182Z,9.719199
2023-05-01T08:41:49.301Z,9.719282
2023-05-01T08:42:49.177Z,9.719324
2023-05-01T08:43:49.204Z,9.719314
2023-05-01T08:44:49.262Z,9.719239
2023-05-01T08:45:49.116Z,9.719249
2023-05-01T08:46:49.157Z,9.719240
2023-05-01T08:47:49.217Z,9.719365
2023-05-01T08:48:49.114Z,9.719395
2023-05-01T08:49:49.089Z,9.719340
2023-05-01T08:50:50.160Z,9.719274
2023-05-01T08:51:49.068Z,9.719369
2023-05-01T08:52:49.054Z,9.719354
2023-05-01T08:53:49.045Z,9.719328
2023-05-01T08:54:49.124Z,9.719329
2023-05-01T08:55:49.079Z,9.719306
2023-05-01T08:56:49.001Z,9.719311
2023-05-01T08:57:49.009Z,9.719337
2023-05-01T08:58:49.086Z,9.719454
2023-05-01T08:59:48.997Z,9.719597
2023-05-01T09:00:48.991Z,9.719533
2023-05-01T09:01:48.999Z,9.719378
2023-05-01T09:02:49.031Z,9.719461
2023-05-01T09:03:49.015Z,9.719386
2023-05-01T09:04:48.955Z,9.719587
2023-05-01T09:05:48.948Z,9.719477
2023-05-01T09:06:49.038Z,9.719452
2023-05-01T09:07:48.932Z,9.719620
2023-05-01T09:08:49.121Z,9.719783
2023-05-01T09:09:48.913Z,9.719739
2023-05-01T09:10:48.898Z,9.719874
2023-05-01T09:11:48.863Z,9.719862
2023-05-01T09:12:48.946Z,9.719757
2023-05-01T09:13:48.845Z,9.719657
2023-05-01T09:14:48.839Z,9.719744
2023-05-01T09:15:56.702Z,9.719736
2023-05-01T09:16:48.966Z,9.719680
2023-05-01T09:17:48.858Z,9.719764
2023-05-01T09:18:48.821Z,9.719575
2023-05-01T09:19:48.806Z,9.719608
2023-05-01T09:20:48.797Z,9.719531
2023-05-01T09:21:48.821Z,9.719408
2023-05-01T09:22:48.767Z,9.719300
2023-05-01T09:23:48.756Z,9.719304
2023-05-01T09:24:48.779Z,9.719351
2023-05-01T09:25:51.410Z,9.719413
2023-05-01T09:26:48.739Z,9.719474
2023-05-01T09:27:48.770Z,9.719617
2023-05-01T09:28:48.714Z,9.719548
2023-05-01T09:29:48.733Z,9.719431
2023-05-01T09:30:48.701Z,9.719456
2023-05-01T09:31:48.733Z,9.719615
2023-05-01T09:32:48.698Z,9.719437
2023-05-01T09:33:48.660Z,9.719346
2023-05-01T09:34:48.680Z,9.719193
2023-05-01T09:35:48.667Z,9.719310
2023-05-01T09:36:48.619Z,9.719340
2023-05-01T09:37:48.606Z,9.719407
2023-05-01T09:38:48.611Z,9.719517
2023-05-01T09:39:49.668Z,9.719475
2023-05-01T09:40:48.606Z,9.719506
2023-05-01T09:41:48.602Z,9.719454
2023-05-01T09:42:48.574Z,9.719478
2023-05-01T09:43:48.560Z,9.719482
2023-05-01T09:44:48.573Z,9.719495
2023-05-01T09:45:48.600Z,9.719452
2023-05-01T09:46:48.551Z,9.719506
2023-05-01T09:47:48.594Z,9.719461
2023-05-01T09:48:48.504Z,9.719469
2023-05-01T09:49:48.498Z,9.719436
2023-05-01T09:50:48.501Z,9.719440
2023-05-01T09:51:48.518Z,9.719500
2023-05-01T09:52:48.501Z,9.719446
2023-05-01T09:53:48.463Z,9.719492
2023-05-01T09:54:48.461Z,9.719513
2023-05-01T09:55:48.468Z,9.719491
2023-05-01T09:56:48.451Z,9.719424
2023-05-01T09:57:48.446Z,9.719448
2023-05-01T09:58:48.446Z,9.719342
2023-05-01T09:59:48.404Z,9.719409
2023-05-01T10:00:48.582Z,9.719429
2023-05-01T10:01:48.511Z,9.719440
2023-05-01T10:02:48.544Z,9.719363
2023-05-01T10:03:48.488Z,9.719474
2023-05-01T10:04:48.377Z,9.719459
2023-05-01T10:05:48.365Z,9.719427
2023-05-01T10:06:48.487Z,9.719471
2023-05-01T10:07:48.335Z,9.719433
2023-05-01T10:08:48.539Z,9.719469
2023-05-01T10:09:48.330Z,9.719410
2023-05-01T10:10:48.321Z,9.719447
2023-05-01T10:11:48.329Z,9.719414
2023-05-01T10:12:48.299Z,9.719523
2023-05-01T10:13:48.276Z,9.719391
2023-05-01T10:14:48.275Z,9.719337
2023-05-01T10:15:48.276Z,9.719370
2023-05-01T10:16:48.284Z,9.719391
2023-05-01T10:17:48.260Z,9.719456
2023-05-01T10:18:48.233Z,9.719537
2023-05-01T10:19:48.234Z,9.719539
2023-05-01T10:20:48.203Z,9.719415
2023-05-01T10:21:48.192Z,9.719364
2023-05-01T10:22:48.233Z,9.719317
2023-05-01T10:23:48.189Z,9.719376
2023-05-01T10:24:48.185Z,9.719169
2023-05-01T10:25:48.162Z,9.719070
2023-05-01T10:26:48.158Z,9.719227
2023-05-01T10:27:48.141Z,9.719305
2023-05-01T10:28:48.153Z,9.719287
2023-05-01T10:29:48.190Z,9.719351
2023-05-01T10:30:48.138Z,9.719406
2023-05-01T10:31:48.186Z,9.719357
2023-05-01T10:32:48.168Z,9.719434
2023-05-01T10:33:48.093Z,9.719358
2023-05-01T10:34:48.062Z,9.719291
2023-05-01T10:35:48.057Z,9.719326
2023-05-01T10:36:48.056Z,9.719228
2023-05-01T10:37:48.063Z,9.719158
2023-05-01T10:38:48.046Z,9.719281
2023-05-01T10:39:48.043Z,9.719424
2023-05-01T10:40:48.041Z,9.719296
2023-05-01T10:41:48.032Z,9.719177
2023-05-01T10:42:48.004Z,9.719230
2023-05-01T10:43:47.990Z,9.719126
2023-05-01T10:44:48.009Z,9.719264
2023-05-01T10:45:48.024Z,9.719276
2023-05-01T10:46:48.002Z,9.719265
2023-05-01T10:47:47.981Z,9.719283
2023-05-01T10:48:47.952Z,9.719248
2023-05-01T10:49:47.933Z,9.719276
2023-05-01T10:50:47.983Z,9.719198
2023-05-01T10:51:47.911Z,9.719165
2023-05-01T10:52:47.893Z,9.719152
2023-05-01T10:53:47.890Z,9.719261
2023-05-01T10:54:47.925Z,9.719276
2023-05-01T10:55:47.882Z,9.719356
2023-05-01T10:56:47.854Z,9.719329
2023-05-01T10:57:47.866Z,9.719245
2023-05-01T10:58:47.827Z,9.719264
2023-05-01T10:59:47.830Z,9.719324
2023-05-01T11:00:47.833Z,9.719315
2023-05-01T11:01:47.921Z,9.719305
2023-05-01T11:02:47.861Z,9.719297
2023-05-01T11:03:47.781Z,9.719451
2023-05-01T11:04:47.836Z,9.719524
2023-05-01T11:05:47.812Z,9.719493
2023-05-01T11:06:47.791Z,9.719428
2023-05-01T11:07:47.739Z,9.719539
2023-05-01T11:08:47.737Z,9.719513
2023-05-01T11:09:47.727Z,9.719585
2023-05-01T11:10:47.715Z,9.719613
2023-05-01T11:11:47.731Z,9.719544
2023-05-01T11:12:47.700Z,9.719537
2023-05-01T11:13:47.690Z,9.719412
2023-05-01T11:14:47.684Z,9.719493
2023-05-01T11:15:47.682Z,9.719527
2023-05-01T11:16:47.760Z,9.719513
2023-05-01T11:17:47.680Z,9.719594
2023-05-01T11:18:47.660Z,9.719453
2023-05-01T11:19:47.660Z,9.719370
2023-05-01T11:20:47.619Z,9.719519
2023-05-01T11:21:47.783Z,9.719562
2023-05-01T11:22:47.614Z,9.719491
2023-05-01T11:23:47.599Z,9.719500
2023-05-01T11:24:47.585Z,9.719397
2023-05-01T11:25:47.581Z,9.719584
2023-05-01T11:26:47.572Z,9.719571
2023-05-01T11:27:47.577Z,9.719622
2023-05-01T11:28:47.553Z,9.719575
2023-05-01T11:29:47.540Z,9.719620
2023-05-01T11:30:47.522Z,9.719712
2023-05-01T11:31:47.556Z,9.719741
2023-05-01T11:32:47.588Z,9.719811
2023-05-01T11:33:47.503Z,9.719798
2023-05-01T11:34:47.500Z,9.719901
2023-05-01T11:35:47.506Z,9.719901
2023-05-01T11:36:47.492Z,9.719853
2023-05-01T11:37:47.459Z,9.719748
2023-05-01T11:38:47.469Z,9.719769
2023-05-01T11:39:47.431Z,9.719789
2023-05-01T11:40:47.422Z,9.719625
2023-05-01T11:41:47.529Z,9.719330
2023-05-01T11:42:47.395Z,9.719481
2023-05-01T11:43:47.404Z,9.719584
2023-05-01T11:44:47.383Z,9.719352